Last 7 Days

Abernathy 1 (AB1)

Hourly Data | America/Los_Angeles
as of 12/12/19 3:57 AM PST
Date & Time Temp (°F) RH (%) Dew Pt (°F) Wind Spd (mph) Wind Dir (°) Wind Gust (mph) Wind Gst Dir (°) Latest Rain (In) Solar Rad Tot Hr (Cal/cm2) Daily Rain (In) Daily Min Temp (°F) Daily Max Temp (°F)
12/12/19 - 0300 51.3 96 50.2 0.0 N | 0 0.0 ESE | 112 0.02 0 0.02 51.0 52.0
12/12/19 - 0200 51.2 96 50.2 0.0 N | 0 0.0 ESE | 119 0.00 0 0.00 51.0 52.0
12/12/19 - 0100 51.6 96 50.5 0.0 N | 0 0.0 NNW | 340 0.00 0 0.00 51.1 52.0
12/12/19 - 0000 51.6 96 50.5 0.0 N | 0 0.0 NNW | 340 0.00 0 0.04 48.8 53.3
12/11/19 - 2300 51.6 96 50.4 0.0 N | 0 0.0 NW | 320 0.00 0 0.04 48.8 53.3
12/11/19 - 2200 51.6 95 50.3 0.0 N | 0 0.0 N | 3 0.01 0 0.04 48.8 53.3
12/11/19 - 2100 51.7 94 50.2 0.0 N | 0 0.0 N | 9 0.01 0 0.03 48.8 53.3
12/11/19 - 2000 51.8 94 50.2 0.1 NNW | 333 4.4 WNW | 303 0.01 0 0.02 48.8 53.3
12/11/19 - 1900 51.9 93 50.0 0.3 ENE | 64 6.8 ENE | 59 0.00 0 0.01 48.8 53.3
12/11/19 - 1800 52.0 93 50.2 1.8 ENE | 71 10.0 ENE | 78 0.00 0 0.01 48.8 53.3
12/11/19 - 1700 52.0 94 50.3 1.4 ENE | 68 8.0 ENE | 62 0.00 1 0.01 48.8 53.3
12/11/19 - 1600 52.3 93 50.2 2.8 ENE | 72 9.6 ENE | 66 0.00 3 0.01 48.8 53.3
12/11/19 - 1500 52.8 92 50.5 3.7 ENE | 59 11.0 NE | 43 0.00 5 0.01 48.8 53.3
12/11/19 - 1400 52.7 93 50.7 2.0 ENE | 71 6.3 NE | 51 0.00 5 0.01 48.8 53.3
12/11/19 - 1300 52.6 92 50.2 2.4 ENE | 69 10.6 ENE | 73 0.00 6 0.01 48.8 53.2
12/11/19 - 1200 52.0 93 50.0 1.7 E | 80 8.3 ESE | 103 0.00 7 0.01 48.8 52.8
12/11/19 - 1100 51.2 94 49.6 1.8 ENE | 61 8.8 ENE | 62 0.00 6 0.01 48.8 52.1
12/11/19 - 1000 50.4 96 49.2 1.5 ENE | 72 6.9 ENE | 73 0.00 4 0.01 48.8 51.0
12/11/19 - 0900 49.9 96 48.8 3.5 ENE | 64 7.6 NE | 51 0.01 3 0.01 48.8 50.4
12/11/19 - 0800 49.6 96 48.6 2.5 ENE | 73 6.8 E | 86 0.00 1 0.00 48.8 50.4
12/11/19 - 0700 49.7 96 48.6 3.2 ENE | 73 8.3 NE | 52 0.00 0 0.00 48.8 50.4
12/11/19 - 0600 49.8 96 48.8 0.5 E | 79 4.8 ENE | 59 0.00 0 0.00 48.8 50.4
12/11/19 - 0500 49.6 96 48.6 0.0 N | 0 0.0 NNE | 14 0.00 0 0.00 48.8 50.4
12/11/19 - 0400 49.3 96 48.3 0.1 NNW | 328 2.7 NNW | 348 0.00 0 0.00 48.8 50.4
12/11/19 - 0300 49.6 96 48.5 0.0 NNE | 15 1.2 N | 0 0.00 0 0.00 49.0 50.4
12/11/19 - 0200 49.9 96 48.8 0.0 N | 0 0.0 ENE | 58 0.00 0 0.00 49.6 50.4
12/11/19 - 0100 50.1 96 48.9 0.0 ENE | 66 2.6 ENE | 70 0.00 0 0.00 49.8 50.4
12/11/19 - 0000 50.1 95 48.8 2.1 NE | 55 5.3 NE | 49 0.01 0 0.10 40.7 54.6
12/10/19 - 2300 50.4 95 48.9 2.0 ENE | 57 4.4 NE | 55 0.00 0 0.09 40.7 54.6
12/10/19 - 2200 50.7 94 49.0 0.3 ENE | 76 3.3 E | 87 0.00 0 0.09 40.7 54.6
12/10/19 - 2100 51.1 93 49.2 0.7 ENE | 73 3.6 ENE | 74 0.03 0 0.09 40.7 54.6
12/10/19 - 2000 51.4 90 48.6 0.0 NE | 40 2.2 NE | 52 0.04 0 0.06 40.7 54.6
12/10/19 - 1900 52.4 86 48.2 0.1 WNW | 296 2.2 WNW | 300 0.02 0 0.02 40.7 54.6
12/10/19 - 1800 52.6 84 48.0 1.2 NE | 37 8.8 ENE | 57 0.00 0 0.00 40.7 54.6
12/10/19 - 1700 53.2 83 48.1 4.8 NE | 53 9.8 E | 94 0.00 1 0.00 40.7 54.6
12/10/19 - 1600 54.2 79 47.9 3.5 ENE | 65 7.6 ENE | 60 0.00 4 0.00 40.7 54.6
12/10/19 - 1500 54.1 80 48.3 2.7 E | 81 9.3 E | 91 0.00 4 0.00 40.7 54.6
12/10/19 - 1400 54.1 80 48.2 1.5 ENE | 77 7.6 ENE | 72 0.00 7 0.00 40.7 54.5
12/10/19 - 1300 53.6 80 47.8 0.3 E | 90 5.6 ENE | 60 0.00 7 0.00 40.7 54.2
12/10/19 - 1200 52.3 84 47.6 0.9 NE | 37 8.1 NE | 42 0.00 8 0.00 40.7 53.4
12/10/19 - 1100 50.1 92 47.8 2.5 ENE | 65 9.0 ENE | 78 0.00 10 0.00 40.7 51.4
12/10/19 - 1000 48.4 96 47.2 0.0 NNE | 32 1.2 NE | 51 0.00 6 0.00 40.7 49.2
12/10/19 - 0900 47.2 96 46.2 0.7 ENE | 66 3.9 ENE | 62 0.00 4 0.00 40.7 48.0
12/10/19 - 0800 45.4 96 44.4 0.4 W | 265 3.1 WNW | 287 0.00 1 0.00 40.7 46.3
12/10/19 - 0700 43.9 96 42.9 0.0 N | 0 0.0 NW | 311 0.00 0 0.00 40.7 45.1
12/10/19 - 0600 43.6 96 42.5 0.0 N | 0 0.0 NE | 38 0.00 0 0.00 40.7 45.1
12/10/19 - 0500 43.5 96 42.4 0.0 NNE | 28 1.6 NNE | 18 0.00 0 0.00 40.7 45.1
12/10/19 - 0400 44.1 96 42.9 0.0 WNW | 299 2.9 NW | 314 0.00 0 0.00 40.7 45.1
12/10/19 - 0300 44.3 96 43.1 0.6 W | 280 4.4 W | 277 0.00 0 0.00 40.7 45.1
12/10/19 - 0200 43.1 95 41.9 0.5 WNW | 282 3.9 W | 270 0.00 0 0.00 40.7 43.5
12/10/19 - 0100 41.7 95 40.3 0.3 WNW | 282 4.3 WNW | 297 0.00 0 0.00 40.7 43.4
12/10/19 - 0000 41.1 94 39.6 0.0 N | 0 0.0 WSW | 245 0.00 0 0.01 40.5 59.9
12/9/19 - 2300 42.8 94 41.1 0.0 N | 0 0.0 WSW | 249 0.00 0 0.01 40.8 59.9
12/9/19 - 2200 44.0 93 42.1 0.0 N | 0 0.0 W | 268 0.00 0 0.01 40.8 59.9
12/9/19 - 2100 46.0 92 44.0 0.0 W | 262 1.7 W | 275 0.00 0 0.01 40.8 59.9
12/9/19 - 2000 47.9 91 45.5 0.2 W | 280 3.4 WNW | 299 0.00 0 0.01 40.8 59.9
12/9/19 - 1900 49.5 91 46.9 2.4 WNW | 293 5.9 WNW | 298 0.00 0 0.01 40.8 59.9
12/9/19 - 1800 50.0 90 47.2 0.7 W | 280 4.6 WNW | 284 0.00 0 0.01 40.8 59.9
12/9/19 - 1700 51.7 88 48.2 4.4 WSW | 252 11.3 WSW | 253 0.00 1 0.01 40.8 59.9
12/9/19 - 1600 54.5 83 49.4 7.2 WSW | 240 12.0 WSW | 257 0.00 8 0.01 40.8 59.9
12/9/19 - 1500 56.8 78 50.0 7.8 SW | 228 12.5 WSW | 249 0.00 21 0.01 40.8 59.9
12/9/19 - 1400 58.1 76 50.5 6.4 SW | 232 11.1 SSW | 203 0.00 30 0.01 40.8 59.9
12/9/19 - 1300 58.3 76 50.8 6.3 SW | 218 11.0 SW | 224 0.00 38 0.01 40.8 59.9
12/9/19 - 1200 57.8 74 49.8 5.7 SSW | 212 11.1 W | 268 0.00 38 0.01 40.8 59.9
12/9/19 - 1100 57.6 73 49.2 1.5 S | 176 5.8 SW | 216 0.00 30 0.01 40.8 59.9
12/9/19 - 1000 53.0 88 49.4 0.5 SSW | 208 3.8 SSW | 207 0.00 25 0.01 40.8 55.9
12/9/19 - 0900 47.3 96 46.3 0.0 N | 0 0.0 WSW | 249 0.00 15 0.01 40.8 50.2
12/9/19 - 0800 42.4 96 41.3 0.0 N | 0 0.0 WSW | 240 0.00 2 0.01 40.8 45.1
12/9/19 - 0700 41.9 96 40.8 0.0 N | 0 0.0 W | 269 0.00 0 0.01 41.3 45.1
12/9/19 - 0600 42.0 96 40.8 0.0 WSW | 249 2.1 SW | 224 0.00 0 0.01 41.3 45.1
12/9/19 - 0500 42.7 95 41.5 0.8 WSW | 257 4.4 WNW | 286 0.01 0 0.01 41.3 45.1
12/9/19 - 0400 42.7 95 41.4 0.4 WSW | 258 2.7 WSW | 252 0.00 0 0.00 41.3 45.1
12/9/19 - 0300 43.8 95 42.4 0.3 W | 264 2.7 WNW | 286 0.00 0 0.00 43.0 45.1
12/9/19 - 0200 44.3 95 43.0 0.2 WNW | 286 2.9 WNW | 286 0.00 0 0.00 43.1 45.1
12/9/19 - 0100 44.5 95 43.1 0.1 NW | 311 2.2 NNW | 332 0.00 0 0.00 43.5 45.1
12/9/19 - 0000 44.7 94 43.2 0.1 NW | 305 2.2 NW | 309 0.00 0 0.01 43.9 66.2
12/8/19 - 2300 45.7 94 44.0 0.0 N | 0 0.0 W | 273 0.00 0 0.01 44.8 66.2
12/8/19 - 2200 47.4 93 45.6 0.3 W | 278 2.7 W | 264 0.00 0 0.01 46.1 66.2
12/8/19 - 2100 48.3 92 46.2 0.3 WNW | 282 3.6 WNW | 287 0.00 0 0.01 47.4 66.2
12/8/19 - 2000 49.8 91 47.2 0.0 N | 0 0.0 NNW | 329 0.00 0 0.01 49.1 66.2
12/8/19 - 1900 51.7 88 48.3 0.1 NW | 316 2.1 WNW | 302 0.00 0 0.01 50.6 66.2
12/8/19 - 1800 55.0 81 49.2 0.0 N | 5 1.7 N | 4 0.00 0 0.01 50.6 66.2
12/8/19 - 1700 59.7 72 50.7 1.8 NNE | 15 6.1 NNE | 26 0.00 2 0.01 50.6 66.2
12/8/19 - 1600 60.6 74 52.2 1.6 NNW | 336 8.3 N | 352 0.00 7 0.01 50.6 66.2
12/8/19 - 1500 63.1 66 51.4 2.5 NNE | 17 11.0 N | 1 0.00 17 0.01 50.6 66.2
12/8/19 - 1400 63.0 65 51.0 0.6 WSW | 242 7.6 WSW | 248 0.00 23 0.01 50.6 64.2
12/8/19 - 1300 61.9 72 52.9 0.2 SW | 232 4.8 W | 262 0.00 29 0.01 50.6 63.6
12/8/19 - 1200 59.7 79 53.2 1.6 SW | 216 7.1 W | 259 0.00 19 0.01 50.6 61.0
12/8/19 - 1100 58.2 83 53.2 0.8 S | 175 5.3 SE | 142 0.00 22 0.01 50.6 60.2
12/8/19 - 1000 55.5 94 53.9 0.3 SSW | 205 3.8 S | 173 0.00 16 0.01 50.6 57.8
12/8/19 - 0900 53.0 96 51.8 0.1 WNW | 288 2.9 W | 266 0.00 7 0.01 50.6 55.3
12/8/19 - 0800 51.5 96 50.3 0.0 NW | 323 1.7 NW | 321 0.00 1 0.01 50.6 55.3
12/8/19 - 0700 52.0 95 50.6 0.5 SSE | 156 3.4 S | 174 0.00 0 0.01 50.6 55.3
12/8/19 - 0600 52.3 94 50.7 0.0 S | 182 1.6 SSW | 193 0.01 0 0.01 51.5 55.3
12/8/19 - 0500 53.0 94 51.4 0.1 SW | 216 1.9 SSW | 211 0.00 0 0.00 52.3 55.3
12/8/19 - 0400 53.1 93 51.1 0.0 SE | 130 1.9 SE | 135 0.00 0 0.00 52.3 55.3
12/8/19 - 0300 54.2 92 52.1 2.6 SW | 216 7.4 S | 191 0.00 1 0.00 53.9 55.3
12/8/19 - 0200 54.5 93 52.5 4.4 SW | 220 8.4 SW | 219 0.00 1 0.00 54.0 55.3
12/8/19 - 0100 54.9 93 53.0 6.1 SW | 217 11.6 SSW | 207 0.00 0 0.00 54.6 55.3
12/8/19 - 0000 55.9 91 53.3 6.3 SSW | 213 13.8 SSW | 197 0.05 0 0.21 52.8 66.7
12/7/19 - 2300 57.4 87 53.7 6.6 SSW | 210 12.3 S | 186 0.00 0 0.16 52.8 66.7
12/7/19 - 2200 57.5 88 54.0 6.5 SSW | 208 12.0 S | 188 0.00 0 0.16 52.8 66.7
12/7/19 - 2100 57.6 87 53.9 6.7 SSW | 206 12.6 S | 179 0.00 0 0.16 52.8 66.7
12/7/19 - 2000 57.4 87 53.7 4.4 SSW | 192 10.8 SSE | 160 0.00 0 0.16 52.8 66.7
12/7/19 - 1900 57.0 87 53.3 4.0 SSW | 198 9.0 S | 171 0.00 0 0.16 52.8 66.7
12/7/19 - 1800 56.6 85 52.2 3.4 SSW | 213 10.3 SW | 223 0.00 0 0.16 52.8 66.7
12/7/19 - 1700 57.8 83 52.6 8.1 SW | 214 20.4 SSW | 201 0.00 2 0.16 52.8 66.7
12/7/19 - 1600 59.3 84 54.4 7.0 SSW | 192 16.3 SSE | 167 0.00 8 0.16 52.8 66.7
12/7/19 - 1500 58.8 88 55.4 6.2 S | 185 13.6 S | 176 0.09 2 0.16 52.8 66.7
12/7/19 - 1400 60.9 80 54.8 7.8 S | 179 20.5 S | 179 0.01 7 0.07 52.8 66.7
12/7/19 - 1300 63.0 72 53.6 8.8 S | 170 20.2 S | 170 0.00 13 0.06 52.8 66.7
12/7/19 - 1200 65.2 66 53.3 7.9 SSE | 163 15.3 S | 175 0.00 34 0.06 52.8 66.7
12/7/19 - 1100 63.5 69 53.3 7.0 SSE | 153 14.3 ESE | 122 0.00 21 0.06 52.8 65.5
12/7/19 - 1000 62.3 76 54.5 5.5 SSE | 148 12.8 SSE | 155 0.01 27 0.06 52.8 64.0
12/7/19 - 0900 57.6 89 54.2 2.4 SE | 143 9.1 SE | 143 0.00 13 0.05 52.8 60.5
12/7/19 - 0800 54.1 95 52.7 0.0 N | 0 0.0 SE | 127 0.00 2 0.05 52.8 55.3
12/7/19 - 0700 54.3 95 53.1 0.0 N | 0 0.0 SE | 136 0.00 0 0.05 52.8 54.7
12/7/19 - 0600 53.4 96 52.3 0.0 N | 0 0.0 WSW | 251 0.00 0 0.05 52.8 54.4
12/7/19 - 0500 53.1 96 51.9 0.0 N | 0 0.0 WSW | 255 0.00 0 0.05 52.8 53.9
12/7/19 - 0400 53.2 95 52.0 0.0 N | 0 0.0 NW | 313 0.02 0 0.05 52.9 53.9
12/7/19 - 0300 53.4 95 52.0 0.0 N | 0 0.0 ENE | 61 0.01 0 0.03 53.0 53.9
12/7/19 - 0200 53.4 94 51.9 0.0 ESE | 122 1.1 ESE | 111 0.01 0 0.02 53.2 53.9
12/7/19 - 0100 53.5 94 51.8 0.0 SE | 146 0.6 SE | 141 0.01 0 0.01 53.2 53.9
12/7/19 - 0000 53.6 94 51.9 0.3 SSE | 154 4.8 S | 186 0.00 0 0.25 48.0 61.6
12/6/19 - 2300 54.0 94 52.2 1.1 SSE | 168 8.0 SE | 144 0.06 0 0.25 48.0 61.6
12/6/19 - 2200 54.7 92 52.6 0.6 N | 355 4.8 NW | 326 0.09 0 0.19 48.0 61.6
12/6/19 - 2100 56.0 87 52.4 0.3 NNW | 344 4.6 NNW | 341 0.06 0 0.10 48.0 61.6
12/6/19 - 2000 57.8 80 51.8 1.8 SSW | 213 4.4 S | 180 0.01 0 0.04 48.0 61.6
12/6/19 - 1900 58.0 80 52.0 2.5 S | 169 6.8 SSW | 200 0.01 0 0.03 48.0 61.6
12/6/19 - 1800 59.4 75 51.5 4.1 SSE | 166 14.2 S | 178 0.02 0 0.02 48.0 61.6
12/6/19 - 1700 59.2 81 53.3 1.2 W | 259 5.4 S | 191 0.00 0 0.00 48.0 61.6
12/6/19 - 1600 60.3 78 53.3 0.7 W | 260 3.4 WNW | 300 0.00 3 0.00 48.0 61.6
12/6/19 - 1500 60.5 77 53.3 1.7 SSW | 204 6.4 SSW | 210 0.00 5 0.00 48.0 61.6
12/6/19 - 1400 61.1 74 52.7 1.2 SE | 145 8.0 SE | 125 0.00 11 0.00 48.0 61.6
12/6/19 - 1300 59.3 76 51.9 2.2 ENE | 70 8.1 E | 92 0.00 26 0.00 48.0 60.6
12/6/19 - 1200 58.1 79 51.7 1.9 E | 86 8.0 ENE | 74 0.00 31 0.00 48.0 59.5
12/6/19 - 1100 53.6 92 51.2 1.0 ENE | 57 4.6 NE | 39 0.00 26 0.00 48.0 57.2
12/6/19 - 1000 51.5 96 50.2 1.4 ENE | 67 6.8 E | 87 0.00 6 0.00 48.0 54.6
12/6/19 - 0900 51.6 96 50.5 2.2 E | 84 6.9 E | 79 0.00 5 0.00 48.0 54.6
12/6/19 - 0800 52.0 96 50.9 1.1 ENE | 76 6.1 ENE | 63 0.00 2 0.00 48.0 54.6
12/6/19 - 0700 52.0 96 50.8 0.0 E | 79 1.4 NE | 56 0.00 0 0.00 48.0 54.6
12/6/19 - 0600 52.0 95 50.6 0.2 E | 82 2.9 E | 93 0.00 0 0.00 48.0 54.6
12/6/19 - 0500 50.4 95 49.0 0.0 N | 0 0.0 ENE | 78 0.00 0 0.00 48.0 54.6
12/6/19 - 0400 49.1 94 47.3 0.0 N | 0 0.0 NW | 322 0.00 0 0.00 48.0 54.6
12/6/19 - 0300 50.4 92 48.3 0.0 N | 0 0.0 S | 181 0.00 0 0.00 49.2 54.6
12/6/19 - 0200 53.2 91 50.6 0.0 N | 0 0.0 SSW | 213 0.00 0 0.00 51.8 54.6
12/6/19 - 0100 54.1 90 51.4 0.1 SSW | 209 2.1 SSW | 211 0.00 0 0.00 53.6 54.6
12/6/19 - 0000 54.5 89 51.2 0.1 SSW | 206 2.6 SSW | 198 0.00 0 0.00 51.4 57.8
12/5/19 - 2300 55.1 87 51.2 0.1 SSE | 167 1.6 S | 173 0.00 0 0.00 51.4 57.8
12/5/19 - 2200 55.2 86 51.0 0.1 S | 176 2.6 SSW | 193 0.00 0 0.00 51.4 57.8
12/5/19 - 2100 55.6 85 51.1 0.1 ENE | 72 1.9 NE | 47 0.00 0 0.00 51.4 57.8
12/5/19 - 2000 55.8 84 51.1 0.1 ENE | 67 2.4 NE | 50 0.00 0 0.00 51.4 57.8
12/5/19 - 1900 55.8 84 50.9 0.4 NE | 41 4.3 ENE | 60 0.00 0 0.00 51.4 57.8
12/5/19 - 1800 55.8 82 50.6 1.3 ENE | 67 5.8 ENE | 67 0.00 0 0.00 51.4 57.8
12/5/19 - 1700 56.4 82 50.9 3.4 NE | 51 6.9 NE | 56 0.00 1 0.00 51.4 57.8
12/5/19 - 1600 56.9 80 50.9 3.4 ENE | 59 7.8 ENE | 78 0.00 4 0.00 51.4 57.8
12/5/19 - 1500 57.1 80 51.1 3.2 ENE | 63 7.8 ENE | 75 0.00 9 0.00 51.4 57.8
12/5/19 - 1400 56.3 84 51.7 3.8 ENE | 75 9.5 ENE | 76 0.00 13 0.00 51.4 57.8
12/5/19 - 1300 56.4 85 51.9 4.7 ENE | 70 9.1 ENE | 62 0.00 9 0.00 51.4 57.0
12/5/19 - 1200 55.7 88 52.1 3.7 NE | 45 8.8 ENE | 63 0.00 9 0.00 51.4 56.5
12/5/19 - 1100 55.2 89 52.0 3.2 NE | 50 7.6 NE | 44 0.00 8 0.00 51.4 55.7
12/5/19 - 1000 54.3 91 51.7 2.5 ENE | 69 6.8 ENE | 71 0.00 6 0.00 51.4 55.2
12/5/19 - 0900 53.4 92 51.1 0.2 ENE | 58 2.6 E | 92 0.00 2 0.00 51.4 53.9
12/5/19 - 0800 52.9 93 50.8 0.0 N | 0 0.0 NE | 55 0.00 0 0.00 51.4 53.3
12/5/19 - 0700 52.7 93 50.7 0.1 NE | 53 2.7 ENE | 76 0.00 0 0.00 51.4 52.9
12/5/19 - 0600 52.4 94 50.7 0.7 ENE | 62 6.3 ENE | 66 0.00 0 0.00 51.4 52.8
12/5/19 - 0500 52.2 94 50.6 0.0 N | 0 0.0 N | 1 0.00 0 0.00 51.4 52.6
12/5/19 - 0400 52.2 94 50.6 0.0 N | 0 0.0 N | 0 0.00 0 0.00 51.4 52.4
Max 65.2 96 55.4 8.8 - 20.5 - 0.09 38 0.25 54.6 66.7
Avg 52.8 89 49.5 1.7 - 5.3 - 0.00 5 - - -
Min 41.1 65 39.6 0.0 - 0.0 - 0.00 0 0.00 40.5 43.4
Total - - - - - - - 0.64 - - - -
Tip: Bookmark this page for easy future reference